sensor_id;sensor_type;location;lat;lon;timestamp;temperature;humidity
1381;DHT22;684;48.342;10.096;2022-12-07T00:01:34;4.80;37.50
1381;DHT22;684;48.342;10.096;2022-12-07T00:04:03;4.80;37.50
1381;DHT22;684;48.342;10.096;2022-12-07T00:06:30;4.80;37.50
1381;DHT22;684;48.342;10.096;2022-12-07T00:08:58;4.80;37.60
1381;DHT22;684;48.342;10.096;2022-12-07T00:11:25;4.80;37.50
1381;DHT22;684;48.342;10.096;2022-12-07T00:13:53;4.80;37.50
1381;DHT22;684;48.342;10.096;2022-12-07T00:16:23;4.80;37.50
1381;DHT22;684;48.342;10.096;2022-12-07T00:18:50;4.80;37.60
1381;DHT22;684;48.342;10.096;2022-12-07T00:21:18;4.80;37.60
1381;DHT22;684;48.342;10.096;2022-12-07T00:23:47;4.80;37.60
1381;DHT22;684;48.342;10.096;2022-12-07T00:26:16;4.80;37.70
1381;DHT22;684;48.342;10.096;2022-12-07T00:28:45;4.80;37.70
1381;DHT22;684;48.342;10.096;2022-12-07T00:31:13;4.80;37.70
1381;DHT22;684;48.342;10.096;2022-12-07T00:33:42;4.80;37.70
1381;DHT22;684;48.342;10.096;2022-12-07T00:36:11;4.80;37.70
1381;DHT22;684;48.342;10.096;2022-12-07T00:38:38;4.80;37.70
1381;DHT22;684;48.342;10.096;2022-12-07T00:41:07;4.80;37.70
1381;DHT22;684;48.342;10.096;2022-12-07T00:43:34;4.80;38.30
1381;DHT22;684;48.342;10.096;2022-12-07T00:46:01;4.80;37.60
1381;DHT22;684;48.342;10.096;2022-12-07T00:48:28;4.70;37.60
1381;DHT22;684;48.342;10.096;2022-12-07T00:50:56;4.70;37.70
1381;DHT22;684;48.342;10.096;2022-12-07T00:53:23;4.70;37.70
1381;DHT22;684;48.342;10.096;2022-12-07T00:55:50;4.70;37.70
1381;DHT22;684;48.342;10.096;2022-12-07T00:58:18;4.70;37.80
1381;DHT22;684;48.342;10.096;2022-12-07T01:00:45;4.70;37.70
1381;DHT22;684;48.342;10.096;2022-12-07T01:03:13;4.70;37.70
1381;DHT22;684;48.342;10.096;2022-12-07T01:05:49;4.70;37.70
1381;DHT22;684;48.342;10.096;2022-12-07T01:08:17;4.60;37.70
1381;DHT22;684;48.342;10.096;2022-12-07T01:10:44;4.70;37.70
1381;DHT22;684;48.342;10.096;2022-12-07T01:13:11;4.60;37.60
1381;DHT22;684;48.342;10.096;2022-12-07T01:15:39;4.60;37.60
1381;DHT22;684;48.342;10.096;2022-12-07T01:18:06;4.60;37.60
1381;DHT22;684;48.342;10.096;2022-12-07T01:20:33;4.60;37.50
1381;DHT22;684;48.342;10.096;2022-12-07T01:23:00;4.60;37.60
1381;DHT22;684;48.342;10.096;2022-12-07T01:25:28;4.60;37.60
1381;DHT22;684;48.342;10.096;2022-12-07T01:27:56;4.60;37.50
1381;DHT22;684;48.342;10.096;2022-12-07T01:30:22;4.60;37.60
1381;DHT22;684;48.342;10.096;2022-12-07T01:32:49;4.60;37.60
1381;DHT22;684;48.342;10.096;2022-12-07T01:35:16;4.60;37.60
1381;DHT22;684;48.342;10.096;2022-12-07T01:37:43;4.60;37.60
1381;DHT22;684;48.342;10.096;2022-12-07T01:40:11;4.60;37.60
1381;DHT22;684;48.342;10.096;2022-12-07T01:42:39;4.60;37.50
1381;DHT22;684;48.342;10.096;2022-12-07T01:48:09;4.60;37.70
1381;DHT22;684;48.342;10.096;2022-12-07T01:50:38;4.60;37.60
1381;DHT22;684;48.342;10.096;2022-12-07T01:53:06;4.60;37.60
1381;DHT22;684;48.342;10.096;2022-12-07T01:55:38;4.60;37.70
1381;DHT22;684;48.342;10.096;2022-12-07T01:58:08;4.60;37.70
1381;DHT22;684;48.342;10.096;2022-12-07T02:00:35;4.60;37.70
1381;DHT22;684;48.342;10.096;2022-12-07T02:03:05;4.60;37.70
1381;DHT22;684;48.342;10.096;2022-12-07T02:05:34;4.60;37.70
1381;DHT22;684;48.342;10.096;2022-12-07T02:08:02;4.60;37.70
1381;DHT22;684;48.342;10.096;2022-12-07T02:10:31;4.60;37.70
1381;DHT22;684;48.342;10.096;2022-12-07T02:12:59;4.60;37.70
1381;DHT22;684;48.342;10.096;2022-12-07T02:15:36;4.60;37.70
1381;DHT22;684;48.342;10.096;2022-12-07T02:18:09;4.60;37.70
1381;DHT22;684;48.342;10.096;2022-12-07T02:20:43;4.60;37.70
1381;DHT22;684;48.342;10.096;2022-12-07T02:23:40;4.60;37.80
1381;DHT22;684;48.342;10.096;2022-12-07T02:29:17;4.60;37.80
1381;DHT22;684;48.342;10.096;2022-12-07T02:31:49;4.60;37.80
1381;DHT22;684;48.342;10.096;2022-12-07T02:34:22;4.60;37.80
1381;DHT22;684;48.342;10.096;2022-12-07T02:36:55;4.60;37.80
1381;DHT22;684;48.342;10.096;2022-12-07T02:39:28;4.60;37.70
1381;DHT22;684;48.342;10.096;2022-12-07T02:42:00;4.60;37.80
1381;DHT22;684;48.342;10.096;2022-12-07T02:44:31;4.60;37.90
1381;DHT22;684;48.342;10.096;2022-12-07T02:47:02;4.60;37.80
1381;DHT22;684;48.342;10.096;2022-12-07T02:49:30;4.60;37.80
1381;DHT22;684;48.342;10.096;2022-12-07T02:51:57;4.60;37.80
1381;DHT22;684;48.342;10.096;2022-12-07T02:54:24;4.60;37.80
1381;DHT22;684;48.342;10.096;2022-12-07T02:56:55;4.60;37.80
1381;DHT22;684;48.342;10.096;2022-12-07T02:59:32;4.60;37.70
1381;DHT22;684;48.342;10.096;2022-12-07T03:02:13;4.70;37.80
1381;DHT22;684;48.342;10.096;2022-12-07T03:04:50;4.60;37.90
1381;DHT22;684;48.342;10.096;2022-12-07T03:07:23;4.60;37.70
1381;DHT22;684;48.342;10.096;2022-12-07T03:09:55;4.60;37.70
1381;DHT22;684;48.342;10.096;2022-12-07T03:12:29;4.60;37.80
1381;DHT22;684;48.342;10.096;2022-12-07T03:15:03;4.60;37.80
1381;DHT22;684;48.342;10.096;2022-12-07T03:17:35;4.60;37.80
1381;DHT22;684;48.342;10.096;2022-12-07T03:20:05;4.60;37.80
1381;DHT22;684;48.342;10.096;2022-12-07T03:22:35;4.60;37.80
1381;DHT22;684;48.342;10.096;2022-12-07T03:25:07;4.60;37.80
1381;DHT22;684;48.342;10.096;2022-12-07T03:27:38;4.60;37.80
1381;DHT22;684;48.342;10.096;2022-12-07T03:30:09;4.60;37.80
1381;DHT22;684;48.342;10.096;2022-12-07T03:32:41;4.60;38.00
1381;DHT22;684;48.342;10.096;2022-12-07T03:35:14;4.60;38.00
1381;DHT22;684;48.342;10.096;2022-12-07T03:37:47;4.60;38.00
1381;DHT22;684;48.342;10.096;2022-12-07T03:40:19;4.60;38.10
1381;DHT22;684;48.342;10.096;2022-12-07T03:42:50;4.60;38.10
1381;DHT22;684;48.342;10.096;2022-12-07T03:45:20;4.70;38.20
1381;DHT22;684;48.342;10.096;2022-12-07T03:47:53;4.60;38.10
1381;DHT22;684;48.342;10.096;2022-12-07T03:50:29;4.70;38.30
1381;DHT22;684;48.342;10.096;2022-12-07T03:53:02;4.70;38.30
1381;DHT22;684;48.342;10.096;2022-12-07T03:55:31;4.70;38.20
1381;DHT22;684;48.342;10.096;2022-12-07T03:58:02;4.70;38.30
1381;DHT22;684;48.342;10.096;2022-12-07T04:00:32;4.70;38.20
1381;DHT22;684;48.342;10.096;2022-12-07T04:02:59;4.70;38.20
1381;DHT22;684;48.342;10.096;2022-12-07T04:05:26;4.70;38.10
1381;DHT22;684;48.342;10.096;2022-12-07T04:07:53;4.70;38.10
1381;DHT22;684;48.342;10.096;2022-12-07T04:10:20;4.70;38.10
1381;DHT22;684;48.342;10.096;2022-12-07T04:12:47;4.70;38.20
1381;DHT22;684;48.342;10.096;2022-12-07T04:15:14;4.70;38.20
1381;DHT22;684;48.342;10.096;2022-12-07T04:17:42;4.70;38.20
1381;DHT22;684;48.342;10.096;2022-12-07T04:20:10;4.70;38.20
1381;DHT22;684;48.342;10.096;2022-12-07T04:22:37;4.70;38.20
1381;DHT22;684;48.342;10.096;2022-12-07T04:25:05;4.70;38.20
1381;DHT22;684;48.342;10.096;2022-12-07T04:27:32;4.70;38.20
1381;DHT22;684;48.342;10.096;2022-12-07T04:29:59;4.80;38.10
1381;DHT22;684;48.342;10.096;2022-12-07T04:32:25;4.80;38.30
1381;DHT22;684;48.342;10.096;2022-12-07T04:34:54;4.80;38.10
1381;DHT22;684;48.342;10.096;2022-12-07T04:37:20;4.80;38.10
1381;DHT22;684;48.342;10.096;2022-12-07T04:39:47;4.80;38.10
1381;DHT22;684;48.342;10.096;2022-12-07T04:42:14;4.80;38.10
1381;DHT22;684;48.342;10.096;2022-12-07T04:44:41;4.80;38.10
1381;DHT22;684;48.342;10.096;2022-12-07T04:47:08;4.90;37.80
1381;DHT22;684;48.342;10.096;2022-12-07T04:49:35;4.90;37.90
1381;DHT22;684;48.342;10.096;2022-12-07T04:52:03;4.80;37.90
1381;DHT22;684;48.342;10.096;2022-12-07T04:54:30;4.80;38.00
1381;DHT22;684;48.342;10.096;2022-12-07T04:56:57;4.80;37.90
1381;DHT22;684;48.342;10.096;2022-12-07T04:59:24;4.80;38.00
1381;DHT22;684;48.342;10.096;2022-12-07T05:01:50;4.80;37.80
1381;DHT22;684;48.342;10.096;2022-12-07T05:04:17;4.80;37.90
1381;DHT22;684;48.342;10.096;2022-12-07T05:06:44;4.80;37.90
1381;DHT22;684;48.342;10.096;2022-12-07T05:09:12;4.80;37.90
1381;DHT22;684;48.342;10.096;2022-12-07T05:11:39;4.70;37.80
1381;DHT22;684;48.342;10.096;2022-12-07T05:14:09;4.70;37.80
1381;DHT22;684;48.342;10.096;2022-12-07T05:16:36;4.70;37.80
1381;DHT22;684;48.342;10.096;2022-12-07T05:19:03;4.60;37.80
1381;DHT22;684;48.342;10.096;2022-12-07T05:21:30;4.60;37.80
1381;DHT22;684;48.342;10.096;2022-12-07T05:23:57;4.60;37.80
1381;DHT22;684;48.342;10.096;2022-12-07T05:26:26;4.60;37.90
1381;DHT22;684;48.342;10.096;2022-12-07T05:28:53;4.60;37.90
1381;DHT22;684;48.342;10.096;2022-12-07T05:31:21;4.60;37.90
1381;DHT22;684;48.342;10.096;2022-12-07T05:33:48;4.50;37.90
1381;DHT22;684;48.342;10.096;2022-12-07T05:36:15;4.50;37.90
1381;DHT22;684;48.342;10.096;2022-12-07T05:38:41;4.50;37.90
1381;DHT22;684;48.342;10.096;2022-12-07T05:41:09;4.50;37.90
1381;DHT22;684;48.342;10.096;2022-12-07T05:43:59;4.50;38.00
1381;DHT22;684;48.342;10.096;2022-12-07T05:46:26;4.50;38.00
1381;DHT22;684;48.342;10.096;2022-12-07T05:48:53;4.50;38.00
1381;DHT22;684;48.342;10.096;2022-12-07T05:51:20;4.40;38.00
1381;DHT22;684;48.342;10.096;2022-12-07T05:53:47;4.50;38.10
1381;DHT22;684;48.342;10.096;2022-12-07T05:56:14;4.40;37.90
1381;DHT22;684;48.342;10.096;2022-12-07T05:58:41;4.40;38.00
1381;DHT22;684;48.342;10.096;2022-12-07T06:01:26;4.40;38.10
1381;DHT22;684;48.342;10.096;2022-12-07T06:03:53;4.40;38.20
1381;DHT22;684;48.342;10.096;2022-12-07T06:06:20;4.30;38.20
1381;DHT22;684;48.342;10.096;2022-12-07T06:08:47;4.30;38.20
1381;DHT22;684;48.342;10.096;2022-12-07T06:11:14;4.30;38.30
1381;DHT22;684;48.342;10.096;2022-12-07T06:13:58;4.30;38.40
1381;DHT22;684;48.342;10.096;2022-12-07T06:16:26;4.30;38.20
1381;DHT22;684;48.342;10.096;2022-12-07T06:18:53;4.20;38.00
1381;DHT22;684;48.342;10.096;2022-12-07T06:21:20;4.20;37.90
1381;DHT22;684;48.342;10.096;2022-12-07T06:23:47;4.20;37.90
1381;DHT22;684;48.342;10.096;2022-12-07T06:26:14;4.20;37.70
1381;DHT22;684;48.342;10.096;2022-12-07T06:28:41;4.20;37.60
1381;DHT22;684;48.342;10.096;2022-12-07T06:31:08;4.10;37.40
1381;DHT22;684;48.342;10.096;2022-12-07T06:33:36;4.10;37.30
1381;DHT22;684;48.342;10.096;2022-12-07T06:36:04;4.10;37.70
1381;DHT22;684;48.342;10.096;2022-12-07T06:38:30;4.10;36.80
1381;DHT22;684;48.342;10.096;2022-12-07T06:40:57;4.10;37.30
1381;DHT22;684;48.342;10.096;2022-12-07T06:43:24;4.10;36.50
1381;DHT22;684;48.342;10.096;2022-12-07T06:45:51;4.10;36.30
1381;DHT22;684;48.342;10.096;2022-12-07T06:48:18;4.10;36.30
1381;DHT22;684;48.342;10.096;2022-12-07T06:50:47;4.00;36.20
1381;DHT22;684;48.342;10.096;2022-12-07T06:53:14;4.00;36.00
1381;DHT22;684;48.342;10.096;2022-12-07T06:55:41;3.90;36.00
1381;DHT22;684;48.342;10.096;2022-12-07T06:58:08;3.90;36.10
1381;DHT22;684;48.342;10.096;2022-12-07T07:00:35;3.80;36.00
1381;DHT22;684;48.342;10.096;2022-12-07T07:03:02;3.80;36.10
1381;DHT22;684;48.342;10.096;2022-12-07T07:05:29;3.70;35.90
1381;DHT22;684;48.342;10.096;2022-12-07T07:07:57;3.60;35.90
1381;DHT22;684;48.342;10.096;2022-12-07T07:10:24;3.60;36.10
1381;DHT22;684;48.342;10.096;2022-12-07T07:12:51;3.50;36.30
1381;DHT22;684;48.342;10.096;2022-12-07T07:15:21;3.50;36.40
1381;DHT22;684;48.342;10.096;2022-12-07T07:17:47;3.50;36.40
1381;DHT22;684;48.342;10.096;2022-12-07T07:20:14;3.50;36.50
1381;DHT22;684;48.342;10.096;2022-12-07T07:22:41;3.50;36.60
1381;DHT22;684;48.342;10.096;2022-12-07T07:25:09;3.50;36.70
1381;DHT22;684;48.342;10.096;2022-12-07T07:27:36;3.40;36.70
1381;DHT22;684;48.342;10.096;2022-12-07T07:30:04;3.50;36.80
1381;DHT22;684;48.342;10.096;2022-12-07T07:32:31;3.50;36.90
1381;DHT22;684;48.342;10.096;2022-12-07T07:34:58;3.50;37.00
1381;DHT22;684;48.342;10.096;2022-12-07T07:37:26;3.60;37.10
1381;DHT22;684;48.342;10.096;2022-12-07T07:39:53;3.60;37.00
1381;DHT22;684;48.342;10.096;2022-12-07T07:42:21;3.70;37.10
1381;DHT22;684;48.342;10.096;2022-12-07T07:44:48;3.80;37.10
1381;DHT22;684;48.342;10.096;2022-12-07T07:47:15;3.90;37.10
1381;DHT22;684;48.342;10.096;2022-12-07T07:49:42;4.00;37.00
1381;DHT22;684;48.342;10.096;2022-12-07T07:52:09;4.10;36.90
1381;DHT22;684;48.342;10.096;2022-12-07T07:54:36;4.30;36.70
1381;DHT22;684;48.342;10.096;2022-12-07T07:57:03;4.30;36.50
1381;DHT22;684;48.342;10.096;2022-12-07T07:59:31;4.40;36.10
1381;DHT22;684;48.342;10.096;2022-12-07T08:01:58;4.50;35.60
1381;DHT22;684;48.342;10.096;2022-12-07T08:04:25;4.50;35.50
1381;DHT22;684;48.342;10.096;2022-12-07T08:06:52;4.60;35.50
1381;DHT22;684;48.342;10.096;2022-12-07T08:09:19;4.80;35.10
1381;DHT22;684;48.342;10.096;2022-12-07T08:11:46;5.00;34.70
1381;DHT22;684;48.342;10.096;2022-12-07T08:14:13;5.00;34.40
1381;DHT22;684;48.342;10.096;2022-12-07T08:16:41;5.10;34.40
1381;DHT22;684;48.342;10.096;2022-12-07T08:19:08;5.60;34.00
1381;DHT22;684;48.342;10.096;2022-12-07T08:21:35;6.50;33.10
1381;DHT22;684;48.342;10.096;2022-12-07T08:24:01;7.60;30.50
1381;DHT22;684;48.342;10.096;2022-12-07T08:26:28;8.40;27.90
1381;DHT22;684;48.342;10.096;2022-12-07T08:28:55;9.10;24.50
1381;DHT22;684;48.342;10.096;2022-12-07T08:31:22;9.60;23.10
1381;DHT22;684;48.342;10.096;2022-12-07T08:33:51;10.00;23.10
1381;DHT22;684;48.342;10.096;2022-12-07T08:36:18;10.50;21.90
1381;DHT22;684;48.342;10.096;2022-12-07T08:38:45;11.00;20.40
1381;DHT22;684;48.342;10.096;2022-12-07T08:41:11;11.10;19.60
1381;DHT22;684;48.342;10.096;2022-12-07T08:43:38;11.40;18.90
1381;DHT22;684;48.342;10.096;2022-12-07T08:46:08;11.70;18.60
1381;DHT22;684;48.342;10.096;2022-12-07T08:48:39;12.10;17.60
1381;DHT22;684;48.342;10.096;2022-12-07T08:51:09;12.40;17.40
1381;DHT22;684;48.342;10.096;2022-12-07T08:53:37;12.80;16.10
1381;DHT22;684;48.342;10.096;2022-12-07T08:56:06;13.00;15.60
1381;DHT22;684;48.342;10.096;2022-12-07T08:58:35;13.30;14.50
1381;DHT22;684;48.342;10.096;2022-12-07T09:01:03;13.60;13.30
1381;DHT22;684;48.342;10.096;2022-12-07T09:03:31;13.80;13.10
1381;DHT22;684;48.342;10.096;2022-12-07T09:05:58;14.10;11.50
1381;DHT22;684;48.342;10.096;2022-12-07T09:08:30;14.40;10.10
1381;DHT22;684;48.342;10.096;2022-12-07T09:10:58;14.70;9.80
1381;DHT22;684;48.342;10.096;2022-12-07T09:13:25;15.10;9.10
1381;DHT22;684;48.342;10.096;2022-12-07T09:15:52;15.20;7.30
1381;DHT22;684;48.342;10.096;2022-12-07T09:18:19;14.90;7.70
1381;DHT22;684;48.342;10.096;2022-12-07T09:20:46;14.50;8.00
1381;DHT22;684;48.342;10.096;2022-12-07T09:23:13;14.10;8.30
1381;DHT22;684;48.342;10.096;2022-12-07T09:25:41;13.80;9.30
1381;DHT22;684;48.342;10.096;2022-12-07T09:28:08;13.40;9.20
1381;DHT22;684;48.342;10.096;2022-12-07T09:30:35;13.20;9.80
1381;DHT22;684;48.342;10.096;2022-12-07T09:33:02;12.80;10.10
1381;DHT22;684;48.342;10.096;2022-12-07T09:35:29;12.60;11.30
1381;DHT22;684;48.342;10.096;2022-12-07T09:37:56;12.40;11.90
1381;DHT22;684;48.342;10.096;2022-12-07T09:40:23;12.10;12.10
1381;DHT22;684;48.342;10.096;2022-12-07T09:42:54;11.90;12.70
1381;DHT22;684;48.342;10.096;2022-12-07T09:45:24;11.70;12.90
1381;DHT22;684;48.342;10.096;2022-12-07T09:47:51;11.50;12.60
1381;DHT22;684;48.342;10.096;2022-12-07T09:50:21;11.30;12.20
1381;DHT22;684;48.342;10.096;2022-12-07T09:52:49;11.10;12.50
1381;DHT22;684;48.342;10.096;2022-12-07T09:55:22;10.90;13.00
1381;DHT22;684;48.342;10.096;2022-12-07T09:57:52;10.70;13.20
1381;DHT22;684;48.342;10.096;2022-12-07T10:00:22;10.60;13.40
1381;DHT22;684;48.342;10.096;2022-12-07T10:02:52;10.50;13.70
1381;DHT22;684;48.342;10.096;2022-12-07T10:05:25;10.40;13.70
1381;DHT22;684;48.342;10.096;2022-12-07T10:07:54;10.20;13.80
1381;DHT22;684;48.342;10.096;2022-12-07T10:10:25;10.20;13.90
1381;DHT22;684;48.342;10.096;2022-12-07T10:12:57;10.10;14.20
1381;DHT22;684;48.342;10.096;2022-12-07T10:15:41;10.10;14.80
1381;DHT22;684;48.342;10.096;2022-12-07T10:18:25;10.20;14.80
1381;DHT22;684;48.342;10.096;2022-12-07T10:21:04;10.20;14.70
1381;DHT22;684;48.342;10.096;2022-12-07T10:23:33;10.30;14.80
1381;DHT22;684;48.342;10.096;2022-12-07T10:26:20;10.50;14.60
1381;DHT22;684;48.342;10.096;2022-12-07T10:28:48;10.80;14.10
1381;DHT22;684;48.342;10.096;2022-12-07T10:31:17;11.20;13.70
1381;DHT22;684;48.342;10.096;2022-12-07T10:33:50;11.40;13.00
1381;DHT22;684;48.342;10.096;2022-12-07T10:36:20;11.60;12.70
1381;DHT22;684;48.342;10.096;2022-12-07T10:38:49;11.60;12.70
1381;DHT22;684;48.342;10.096;2022-12-07T10:41:16;11.70;12.60
1381;DHT22;684;48.342;10.096;2022-12-07T10:43:54;11.80;12.20
1381;DHT22;684;48.342;10.096;2022-12-07T10:46:45;11.90;11.70
1381;DHT22;684;48.342;10.096;2022-12-07T10:49:37;12.10;11.40
1381;DHT22;684;48.342;10.096;2022-12-07T10:52:09;12.50;11.30
1381;DHT22;684;48.342;10.096;2022-12-07T10:54:45;14.10;9.80
1381;DHT22;684;48.342;10.096;2022-12-07T10:57:26;14.70;7.10
1381;DHT22;684;48.342;10.096;2022-12-07T11:00:04;14.70;6.80
1381;DHT22;684;48.342;10.096;2022-12-07T11:05:25;14.10;7.80
1381;DHT22;684;48.342;10.096;2022-12-07T11:08:02;14.10;7.00
1381;DHT22;684;48.342;10.096;2022-12-07T11:10:39;14.00;6.60
1381;DHT22;684;48.342;10.096;2022-12-07T11:13:20;13.80;6.70
1381;DHT22;684;48.342;10.096;2022-12-07T11:18:57;13.30;7.90
1381;DHT22;684;48.342;10.096;2022-12-07T11:21:30;13.30;7.80
1381;DHT22;684;48.342;10.096;2022-12-07T11:24:05;13.20;7.90
1381;DHT22;684;48.342;10.096;2022-12-07T11:26:49;13.20;7.80
1381;DHT22;684;48.342;10.096;2022-12-07T11:29:34;13.00;8.10
1381;DHT22;684;48.342;10.096;2022-12-07T11:32:15;12.90;8.00
1381;DHT22;684;48.342;10.096;2022-12-07T11:34:51;12.70;8.40
1381;DHT22;684;48.342;10.096;2022-12-07T11:37:21;12.60;8.50
1381;DHT22;684;48.342;10.096;2022-12-07T11:39:51;12.40;9.00
1381;DHT22;684;48.342;10.096;2022-12-07T11:42:22;12.30;9.50
1381;DHT22;684;48.342;10.096;2022-12-07T11:44:53;12.20;9.30
1381;DHT22;684;48.342;10.096;2022-12-07T11:47:28;12.00;9.70
1381;DHT22;684;48.342;10.096;2022-12-07T11:50:01;11.90;9.90
1381;DHT22;684;48.342;10.096;2022-12-07T11:52:37;11.80;10.10
1381;DHT22;684;48.342;10.096;2022-12-07T11:55:17;11.70;10.30
1381;DHT22;684;48.342;10.096;2022-12-07T11:57:46;11.60;10.70
1381;DHT22;684;48.342;10.096;2022-12-07T12:00:18;11.60;10.80
1381;DHT22;684;48.342;10.096;2022-12-07T12:02:52;11.50;11.00
1381;DHT22;684;48.342;10.096;2022-12-07T12:05:22;11.50;10.90
1381;DHT22;684;48.342;10.096;2022-12-07T12:07:54;11.50;10.80
1381;DHT22;684;48.342;10.096;2022-12-07T12:10:35;11.40;10.80
1381;DHT22;684;48.342;10.096;2022-12-07T12:13:34;11.40;10.70
1381;DHT22;684;48.342;10.096;2022-12-07T12:16:32;11.50;10.60
1381;DHT22;684;48.342;10.096;2022-12-07T12:19:19;11.50;10.10
1381;DHT22;684;48.342;10.096;2022-12-07T12:21:54;12.20;9.80
1381;DHT22;684;48.342;10.096;2022-12-07T12:24:24;13.00;9.30
1381;DHT22;684;48.342;10.096;2022-12-07T12:26:54;13.70;8.30
1381;DHT22;684;48.342;10.096;2022-12-07T12:29:28;14.30;7.30
1381;DHT22;684;48.342;10.096;2022-12-07T12:32:13;14.70;6.30
1381;DHT22;684;48.342;10.096;2022-12-07T12:34:58;15.00;5.00
1381;DHT22;684;48.342;10.096;2022-12-07T12:37:43;15.10;4.70
1381;DHT22;684;48.342;10.096;2022-12-07T12:40:39;14.70;4.80
1381;DHT22;684;48.342;10.096;2022-12-07T12:43:45;14.40;5.50
1381;DHT22;684;48.342;10.096;2022-12-07T12:46:48;14.30;5.70
1381;DHT22;684;48.342;10.096;2022-12-07T12:49:35;14.10;5.60
1381;DHT22;684;48.342;10.096;2022-12-07T12:55:19;13.60;6.30
1381;DHT22;684;48.342;10.096;2022-12-07T13:01:38;13.00;6.90
1381;DHT22;684;48.342;10.096;2022-12-07T13:04:34;12.70;6.80
1381;DHT22;684;48.342;10.096;2022-12-07T13:07:07;12.40;7.40
1381;DHT22;684;48.342;10.096;2022-12-07T13:09:35;12.10;7.70
1381;DHT22;684;48.342;10.096;2022-12-07T13:12:10;11.90;8.30
1381;DHT22;684;48.342;10.096;2022-12-07T13:14:51;11.70;9.30
1381;DHT22;684;48.342;10.096;2022-12-07T13:20:55;11.30;9.30
1381;DHT22;684;48.342;10.096;2022-12-07T13:23:25;11.10;9.30
1381;DHT22;684;48.342;10.096;2022-12-07T13:26:11;11.00;9.80
1381;DHT22;684;48.342;10.096;2022-12-07T13:28:42;10.80;10.20
1381;DHT22;684;48.342;10.096;2022-12-07T13:31:22;10.70;10.10
1381;DHT22;684;48.342;10.096;2022-12-07T13:33:50;10.50;10.40
1381;DHT22;684;48.342;10.096;2022-12-07T13:36:23;10.40;11.10
1381;DHT22;684;48.342;10.096;2022-12-07T13:38:53;10.30;11.30
1381;DHT22;684;48.342;10.096;2022-12-07T13:41:21;10.20;11.40
1381;DHT22;684;48.342;10.096;2022-12-07T13:43:53;10.10;11.90
1381;DHT22;684;48.342;10.096;2022-12-07T13:46:24;9.90;12.10
1381;DHT22;684;48.342;10.096;2022-12-07T13:48:52;9.80;12.50
1381;DHT22;684;48.342;10.096;2022-12-07T13:51:22;9.70;13.20
1381;DHT22;684;48.342;10.096;2022-12-07T13:53:51;9.70;13.60
1381;DHT22;684;48.342;10.096;2022-12-07T13:56:22;9.60;13.00
1381;DHT22;684;48.342;10.096;2022-12-07T13:58:50;9.50;13.10
1381;DHT22;684;48.342;10.096;2022-12-07T14:01:17;9.40;13.40
1381;DHT22;684;48.342;10.096;2022-12-07T14:03:44;9.30;13.60
1381;DHT22;684;48.342;10.096;2022-12-07T14:06:23;9.30;13.70
1381;DHT22;684;48.342;10.096;2022-12-07T14:09:07;9.20;13.90
1381;DHT22;684;48.342;10.096;2022-12-07T14:11:35;9.20;13.90
1381;DHT22;684;48.342;10.096;2022-12-07T14:14:04;9.10;14.10
1381;DHT22;684;48.342;10.096;2022-12-07T14:16:33;9.10;14.40
1381;DHT22;684;48.342;10.096;2022-12-07T14:19:02;9.10;14.50
1381;DHT22;684;48.342;10.096;2022-12-07T14:21:32;9.00;14.50
1381;DHT22;684;48.342;10.096;2022-12-07T14:24:09;8.80;14.60
1381;DHT22;684;48.342;10.096;2022-12-07T14:26:37;8.70;14.90
1381;DHT22;684;48.342;10.096;2022-12-07T14:29:31;8.60;14.90
1381;DHT22;684;48.342;10.096;2022-12-07T14:32:22;8.60;15.20
1381;DHT22;684;48.342;10.096;2022-12-07T14:35:01;8.50;15.60
1381;DHT22;684;48.342;10.096;2022-12-07T14:37:29;8.40;15.90
1381;DHT22;684;48.342;10.096;2022-12-07T14:39:56;8.30;16.50
1381;DHT22;684;48.342;10.096;2022-12-07T14:42:26;8.20;16.80
1381;DHT22;684;48.342;10.096;2022-12-07T14:44:55;8.20;16.80
1381;DHT22;684;48.342;10.096;2022-12-07T14:47:23;8.10;16.90
1381;DHT22;684;48.342;10.096;2022-12-07T14:49:50;8.10;17.10
1381;DHT22;684;48.342;10.096;2022-12-07T14:52:20;7.90;17.20
1381;DHT22;684;48.342;10.096;2022-12-07T14:54:48;7.90;17.60
1381;DHT22;684;48.342;10.096;2022-12-07T14:57:15;7.80;17.80
1381;DHT22;684;48.342;10.096;2022-12-07T14:59:42;7.70;17.90
1381;DHT22;684;48.342;10.096;2022-12-07T15:02:14;7.60;17.80
1381;DHT22;684;48.342;10.096;2022-12-07T15:04:42;7.50;17.80
1381;DHT22;684;48.342;10.096;2022-12-07T15:07:15;7.50;17.50
1381;DHT22;684;48.342;10.096;2022-12-07T15:09:43;7.40;17.60
1381;DHT22;684;48.342;10.096;2022-12-07T15:12:10;7.30;18.10
1381;DHT22;684;48.342;10.096;2022-12-07T15:14:36;7.10;18.20
1381;DHT22;684;48.342;10.096;2022-12-07T15:17:03;7.00;18.50
1381;DHT22;684;48.342;10.096;2022-12-07T15:19:32;6.90;18.80
1381;DHT22;684;48.342;10.096;2022-12-07T15:21:59;6.80;19.00
1381;DHT22;684;48.342;10.096;2022-12-07T15:24:26;6.70;19.30
1381;DHT22;684;48.342;10.096;2022-12-07T15:26:53;6.60;19.50
1381;DHT22;684;48.342;10.096;2022-12-07T15:29:20;6.50;19.70
1381;DHT22;684;48.342;10.096;2022-12-07T15:31:48;6.30;19.90
1381;DHT22;684;48.342;10.096;2022-12-07T15:34:15;6.20;20.20
1381;DHT22;684;48.342;10.096;2022-12-07T15:36:44;6.10;20.50
1381;DHT22;684;48.342;10.096;2022-12-07T15:39:10;5.90;20.80
1381;DHT22;684;48.342;10.096;2022-12-07T15:41:38;5.90;21.20
1381;DHT22;684;48.342;10.096;2022-12-07T15:44:05;5.80;21.30
1381;DHT22;684;48.342;10.096;2022-12-07T15:46:49;5.80;21.60
1381;DHT22;684;48.342;10.096;2022-12-07T15:49:18;5.70;22.00
1381;DHT22;684;48.342;10.096;2022-12-07T15:51:47;5.70;22.20
1381;DHT22;684;48.342;10.096;2022-12-07T15:54:18;5.60;22.50
1381;DHT22;684;48.342;10.096;2022-12-07T15:56:45;5.50;22.60
1381;DHT22;684;48.342;10.096;2022-12-07T15:59:12;5.50;22.90
1381;DHT22;684;48.342;10.096;2022-12-07T16:01:39;5.40;23.00
1381;DHT22;684;48.342;10.096;2022-12-07T16:04:06;5.40;23.50
1381;DHT22;684;48.342;10.096;2022-12-07T16:06:33;5.40;23.30
1381;DHT22;684;48.342;10.096;2022-12-07T16:09:01;5.30;23.40
1381;DHT22;684;48.342;10.096;2022-12-07T16:11:28;5.30;23.60
1381;DHT22;684;48.342;10.096;2022-12-07T16:13:55;5.20;23.70
1381;DHT22;684;48.342;10.096;2022-12-07T16:16:23;5.10;24.00
1381;DHT22;684;48.342;10.096;2022-12-07T16:18:50;5.10;24.40
1381;DHT22;684;48.342;10.096;2022-12-07T16:21:18;5.00;24.40
1381;DHT22;684;48.342;10.096;2022-12-07T16:23:45;4.90;24.70
1381;DHT22;684;48.342;10.096;2022-12-07T16:26:15;4.90;24.80
1381;DHT22;684;48.342;10.096;2022-12-07T16:28:43;4.80;24.90
1381;DHT22;684;48.342;10.096;2022-12-07T16:31:12;4.80;25.00
1381;DHT22;684;48.342;10.096;2022-12-07T16:33:41;4.70;25.10
1381;DHT22;684;48.342;10.096;2022-12-07T16:36:10;4.70;25.30
1381;DHT22;684;48.342;10.096;2022-12-07T16:38:38;4.60;25.40
1381;DHT22;684;48.342;10.096;2022-12-07T16:41:05;4.50;25.50
1381;DHT22;684;48.342;10.096;2022-12-07T16:43:35;4.50;25.60
1381;DHT22;684;48.342;10.096;2022-12-07T16:46:03;4.50;25.70
1381;DHT22;684;48.342;10.096;2022-12-07T16:48:30;4.40;25.70
1381;DHT22;684;48.342;10.096;2022-12-07T16:50:57;4.40;25.80
1381;DHT22;684;48.342;10.096;2022-12-07T16:53:24;4.40;26.00
1381;DHT22;684;48.342;10.096;2022-12-07T16:55:51;4.30;26.00
1381;DHT22;684;48.342;10.096;2022-12-07T16:58:18;4.30;26.00